Terminal Aerodrome Forecast
Issued by NWS

Home | Current Version | Previous Version | Text Only | Print | Product List | Glossary On
Versions: 1 2 3 4 5 6 7 8 9 10 11 12 13 14 15 16 17 18 19 20 21 22 23 24 25 26
000
FTUS43 KDTX 182030 AAA
TAFDET
TAF AMD
KDET 182030Z 1821/1918 26008KT P6SM BKN015 OVC025
      TEMPO 1821/1824 4SM -FZDZ BR
     FM190100 30003KT P6SM OVC015
     FM191300 34005KT P6SM BKN025=

USA.gov is the U.S. government's official web portal to all federal, state and local government web resources and services.